Time;durP1;ratioP1;P1;durP2;ratioP2;P2;SDS_P1;SDS_P2;PMS_P1;PMS_P2;Temp;Humidity;BMP_temperature;BMP_pressure;BME280_temperature;BME280_humidity;BME280_pressure;Samples;Min_cycle;Max_cycle;Signal;HPM_P1;HPM_P2
2022/04/21 00:00:04;;;;;;;14.30;6.53;;;7.60;99.90;;;;;;5068772;28;20387;-52
2022/04/21 00:02:30;;;;;;;11.65;6.85;;;7.60;99.90;;;;;;5069665;28;20475;-52
2022/04/21 00:04:56;;;;;;;11.23;6.65;;;7.50;99.90;;;;;;5068848;28;20415;-52
2022/04/21 00:07:22;;;;;;;11.50;6.33;;;7.60;99.90;;;;;;5051988;28;20485;-53
2022/04/21 00:09:49;;;;;;;10.30;6.20;;;7.50;99.90;;;;;;5051145;28;20376;-52
2022/04/21 00:12:15;;;;;;;12.18;6.90;;;7.50;99.90;;;;;;5069352;28;20398;-52
2022/04/21 00:14:41;;;;;;;11.15;5.93;;;7.50;99.90;;;;;;5069457;28;20486;-52
2022/04/21 00:17:09;;;;;;;11.35;6.15;;;7.50;99.90;;;;;;5068660;28;20911;-53
2022/04/21 00:19:36;;;;;;;10.57;5.80;;;7.50;99.90;;;;;;5069279;28;20419;-53
2022/04/21 00:24:46;;;;;;;11.80;6.20;;;7.50;99.90;;;;;;5089356;28;20431;-52
2022/04/21 00:27:11;;;;;;;10.52;6.45;;;7.30;99.90;;;;;;5088401;28;20394;-53
2022/04/21 00:29:38;;;;;;;13.23;6.83;;;7.30;99.90;;;;;;5089782;28;20370;-52
2022/04/21 00:32:04;;;;;;;11.93;6.63;;;7.30;99.90;;;;;;5087100;28;20417;-52
2022/04/21 00:34:32;;;;;;;11.98;7.22;;;7.30;1.00;;;;;;5089285;28;20921;-53
2022/04/21 00:36:57;;;;;;;12.40;6.60;;;7.20;1.00;;;;;;5069397;28;20501;-52
2022/04/21 00:39:23;;;;;;;12.30;7.40;;;7.10;1.00;;;;;;5089280;28;20931;-52
2022/04/21 00:41:55;;;;;;;14.18;7.30;;;7.10;1.00;;;;;;5087182;28;20394;-52
2022/04/21 00:44:20;;;;;;;12.80;7.50;;;7.20;1.00;;;;;;5089358;28;20393;-52
2022/04/21 00:46:46;;;;;;;12.60;7.28;;;7.20;1.00;;;;;;5088477;28;20407;-52
2022/04/21 00:49:13;;;;;;;12.57;7.60;;;7.20;1.00;;;;;;5089250;28;20401;-52
2022/04/21 00:51:39;;;;;;;12.07;7.25;;;7.20;1.00;;;;;;5085305;28;20403;-52
2022/04/21 00:54:04;;;;;;;13.37;7.40;;;7.10;1.00;;;;;;5087674;28;20402;-52
2022/04/21 00:56:31;;;;;;;12.70;7.43;;;7.20;1.00;;;;;;5085831;28;20478;-52
2022/04/21 00:58:57;;;;;;;13.10;7.40;;;7.20;1.00;;;;;;5086673;28;20399;-52
2022/04/21 01:04:08;;;;;;;13.00;7.30;;;7.40;1.00;;;;;;5088788;28;20384;-52
2022/04/21 01:06:34;;;;;;;11.53;6.80;;;7.40;1.00;;;;;;5081181;28;20883;-52
2022/04/21 01:08:59;;;;;;;13.07;7.63;;;7.40;1.00;;;;;;5088506;28;20374;-52
2022/04/21 01:11:25;;;;;;;13.17;7.60;;;7.40;1.00;;;;;;5087954;28;20469;-52
2022/04/21 01:13:51;;;;;;;13.18;7.57;;;7.50;1.00;;;;;;5088382;28;20867;-52
2022/04/21 01:16:17;;;;;;;13.75;8.10;;;7.60;1.00;;;;;;5089180;28;20389;-52
2022/04/21 01:18:43;;;;;;;15.13;7.78;;;7.70;1.00;;;;;;5089209;28;20381;-52
2022/04/21 01:21:08;;;;;;;13.50;8.30;;;7.60;1.00;;;;;;5087996;28;20504;-52
2022/04/21 01:23:34;;;;;;;15.70;8.85;;;7.60;1.00;;;;;;5087284;28;20479;-52
2022/04/21 01:26:01;;;;;;;13.10;8.73;;;7.50;1.00;;;;;;5088182;28;20381;-52
2022/04/21 01:28:29;;;;;;;13.00;7.60;;;7.60;1.00;;;;;;5087500;28;20398;-52
2022/04/21 01:30:55;;;;;;;14.25;8.10;;;7.50;1.00;;;;;;5087996;28;20839;-53
2022/04/21 01:33:21;;;;;;;14.00;8.55;;;7.50;1.00;;;;;;5088089;28;20393;-52
2022/04/21 01:35:47;;;;;;;16.88;9.00;;;7.50;1.00;;;;;;5088467;28;20742;-52
2022/04/21 01:41:11;;;;;;;18.70;9.57;;;7.70;90.80;;;;;;5088321;28;20803;-52
2022/04/21 01:43:43;;;;;;;13.93;9.30;;;7.70;49.10;;;;;;5082241;28;20398;-52
2022/04/21 01:46:09;;;;;;;15.25;10.10;;;7.80;3.40;;;;;;5087377;28;20386;-52
2022/04/21 01:48:36;;;;;;;16.77;10.05;;;7.90;1.00;;;;;;5083822;28;20390;-52
2022/04/21 01:51:02;;;;;;;16.73;10.10;;;7.80;1.00;;;;;;5087643;28;20389;-52
2022/04/21 01:53:28;;;;;;;14.07;9.50;;;7.80;1.00;;;;;;5087247;28;20466;-52
2022/04/21 01:55:55;;;;;;;15.65;9.63;;;7.80;1.00;;;;;;5091865;28;20435;-52
2022/04/21 01:58:21;;;;;;;20.98;10.60;;;7.90;1.00;;;;;;5073659;28;20437;-52
2022/04/21 02:00:46;;;;;;;13.88;9.55;;;7.90;1.00;;;;;;5091707;28;20788;-52
2022/04/21 02:03:12;;;;;;;14.10;10.00;;;7.90;1.00;;;;;;5089458;28;20465;-53
2022/04/21 02:05:38;;;;;;;15.85;9.60;;;8.00;1.00;;;;;;5092688;28;20384;-52
2022/04/21 02:08:04;;;;;;;14.20;9.70;;;8.00;1.00;;;;;;5090344;28;20382;-52
2022/04/21 02:10:30;;;;;;;15.43;9.40;;;7.90;1.00;;;;;;5092506;28;20378;-54
2022/04/21 02:12:56;;;;;;;14.40;9.53;;;7.80;1.00;;;;;;5089304;28;20417;-52
2022/04/21 02:15:23;;;;;;;16.15;10.57;;;7.80;1.00;;;;;;5092352;28;20408;-52
2022/04/21 02:17:49;;;;;;;15.68;10.40;;;7.70;1.00;;;;;;5089402;28;20750;-52
2022/04/21 02:20:16;;;;;;;16.10;10.00;;;7.60;1.00;;;;;;5092290;28;20713;-52
2022/04/21 02:22:44;;;;;;;15.75;10.80;;;7.60;58.30;;;;;;5091128;28;20439;-52
2022/04/21 02:25:11;;;;;;;15.50;9.93;;;7.50;99.90;;;;;;5091586;28;20405;-52
2022/04/21 02:27:39;;;;;;;14.98;10.38;;;7.40;99.90;;;;;;5091585;28;20413;-52
2022/04/21 02:30:07;;;;;;;18.10;11.50;;;7.30;99.90;;;;;;5091566;28;21080;-52
2022/04/21 02:32:33;;;;;;;16.00;10.40;;;7.20;1.00;;;;;;5091970;28;20421;-52
2022/04/21 02:34:58;;;;;;;16.95;10.60;;;7.20;1.00;;;;;;5091437;28;20437;-52
2022/04/21 02:37:24;;;;;;;16.93;10.90;;;7.20;1.00;;;;;;5091767;28;20433;-52
2022/04/21 02:39:50;;;;;;;17.17;11.45;;;7.10;1.00;;;;;;5093628;28;20409;-52
2022/04/21 02:42:20;;;;;;;18.30;10.82;;;7.10;1.00;;;;;;5090657;28;20777;-52
2022/04/21 02:44:46;;;;;;;15.60;10.30;;;7.10;1.00;;;;;;5091811;28;20382;-52
2022/04/21 02:47:12;;;;;;;17.17;11.07;;;7.00;1.00;;;;;;5090344;28;20925;-52
2022/04/21 02:49:38;;;;;;;18.60;11.40;;;7.00;99.90;;;;;;5092191;28;20390;-52
2022/04/21 02:52:10;;;;;;;17.52;11.45;;;7.00;99.90;;;;;;5069473;28;20867;-52
2022/04/21 02:57:22;;;;;;;16.77;11.68;;;7.00;99.90;;;;;;5090792;28;20393;-52
2022/04/21 02:59:56;;;;;;;17.02;12.15;;;6.90;1.00;;;;;;5091151;28;20413;-52
2022/04/21 03:02:22;;;;;;;18.58;12.25;;;6.90;99.90;;;;;;5090998;28;20400;-52
2022/04/21 03:04:49;;;;;;;18.45;12.85;;;7.00;99.90;;;;;;5065168;28;20528;-52
2022/04/21 03:07:17;;;;;;;18.55;12.50;;;7.00;99.90;;;;;;5091360;28;20386;-52
2022/04/21 03:09:43;;;;;;;20.00;12.65;;;7.10;99.90;;;;;;5092019;28;20463;-52
2022/04/21 03:12:09;;;;;;;16.90;12.20;;;7.00;1.00;;;;;;5089822;28;20394;-52
2022/04/21 03:14:40;;;;;;;18.80;13.30;;;7.00;99.90;;;;;;5091425;28;20883;-52
2022/04/21 03:17:07;;;;;;;19.40;12.57;;;6.90;99.90;;;;;;5090252;28;20394;-52
2022/04/21 03:19:34;;;;;;;21.60;12.47;;;6.90;1.00;;;;;;5091391;28;20394;-52
2022/04/21 03:24:45;;;;;;;18.65;12.02;;;6.90;99.90;;;;;;5091622;28;20381;-52
2022/04/21 03:27:11;;;;;;;19.10;13.20;;;6.80;28.10;;;;;;5089536;28;20465;-52
2022/04/21 03:29:39;;;;;;;19.55;12.60;;;6.80;99.90;;;;;;5091485;28;20496;-53
2022/04/21 03:32:10;;;;;;;19.40;12.23;;;6.70;1.00;;;;;;5082314;28;20454;-53
2022/04/21 03:34:40;;;;;;;21.33;12.68;;;6.60;33.40;;;;;;5091167;28;20408;-52
2022/04/21 03:37:10;;;;;;;18.10;12.20;;;6.60;1.00;;;;;;5085858;28;20759;-52
2022/04/21 03:39:37;;;;;;;17.88;12.35;;;6.70;1.00;;;;;;5091479;28;20389;-53
2022/04/21 03:42:07;;;;;;;20.10;12.52;;;6.70;1.00;;;;;;5086373;28;20432;-52
2022/04/21 03:44:39;;;;;;;19.20;12.57;;;6.70;1.00;;;;;;5089379;28;20386;-52
2022/04/21 03:47:06;;;;;;;19.23;12.63;;;6.60;1.00;;;;;;5089285;28;20413;-52
2022/04/21 03:49:32;;;;;;;19.17;12.75;;;6.50;66.90;;;;;;5091048;28;20489;-52
2022/04/21 03:51:58;;;;;;;19.57;12.60;;;6.30;1.00;;;;;;5080410;28;20473;-52
2022/04/21 03:54:24;;;;;;;20.00;13.47;;;6.30;99.90;;;;;;5090855;28;20398;-52
2022/04/21 03:56:50;;;;;;;20.15;12.60;;;6.20;1.00;;;;;;5089969;28;20530;-52
2022/04/21 03:59:17;;;;;;;21.17;13.15;;;6.10;1.00;;;;;;5091107;28;20535;-52
2022/04/21 04:01:44;;;;;;;21.58;14.15;;;6.20;99.90;;;;;;5087200;28;20421;-52
2022/04/21 04:04:10;;;;;;;21.63;13.98;;;6.20;99.90;;;;;;5088685;28;20386;-52
2022/04/21 04:12:04;;;;;;;25.77;14.80;;;6.40;1.00;;;;;;5086415;28;20463;-52
2022/04/21 04:14:30;;;;;;;21.17;13.63;;;6.50;1.00;;;;;;5084499;28;20883;-52
2022/04/21 04:16:56;;;;;;;21.42;14.10;;;6.50;99.90;;;;;;5086874;28;20394;-52
2022/04/21 04:19:21;;;;;;;22.40;15.10;;;6.50;99.90;;;;;;5090403;28;20374;-52
2022/04/21 04:21:47;;;;;;;22.87;15.00;;;6.40;1.00;;;;;;5088235;28;20498;-52
2022/04/21 04:24:13;;;;;;;22.88;14.95;;;6.50;1.00;;;;;;5090736;28;20428;-52
2022/04/21 04:26:38;;;;;;;20.23;14.13;;;6.40;1.00;;;;;;5089317;28;20394;-52
2022/04/21 04:29:05;;;;;;;20.77;14.00;;;6.40;99.90;;;;;;5089105;28;20378;-52
2022/04/21 04:31:31;;;;;;;23.83;15.63;;;6.50;99.90;;;;;;5089781;28;20871;-52
2022/04/21 04:33:57;;;;;;;23.60;14.40;;;6.50;99.90;;;;;;5089445;28;20446;-52
2022/04/21 04:36:23;;;;;;;22.17;14.50;;;6.50;1.00;;;;;;5089680;28;20394;-52
2022/04/21 04:38:49;;;;;;;22.17;14.82;;;6.30;99.90;;;;;;5089182;28;20863;-52
2022/04/21 04:44:00;;;;;;;21.50;14.20;;;6.40;1.00;;;;;;5088778;28;20459;-52
2022/04/21 04:46:35;;;;;;;20.90;14.00;;;6.40;99.90;;;;;;5090395;28;20839;-52
2022/04/21 04:49:02;;;;;;;21.90;13.80;;;6.30;1.00;;;;;;5088718;28;20891;-52
2022/04/21 04:51:28;;;;;;;22.30;14.60;;;6.50;1.00;;;;;;5063979;28;20409;-52
2022/04/21 04:53:54;;;;;;;21.23;13.43;;;6.70;1.00;;;;;;5088787;28;20500;-52
2022/04/21 04:56:24;;;;;;;20.92;13.95;;;6.90;99.90;;;;;;5088402;28;20509;-52
2022/04/21 04:58:51;;;;;;;20.00;13.95;;;7.00;1.00;;;;;;5077459;28;20394;-52
2022/04/21 05:01:26;;;;;;;21.13;13.70;;;7.20;99.90;;;;;;5082730;28;20407;-53
2022/04/21 05:04:16;;;;;;;23.75;14.10;;;7.30;99.90;;;;;;5084829;28;20487;-52
2022/04/21 05:06:50;;;;;;;19.90;13.17;;;7.30;99.90;;;;;;5088443;28;20847;-52
2022/04/21 05:09:18;;;;;;;21.58;13.70;;;7.40;99.90;;;;;;5087457;28;20743;-53
2022/04/21 05:11:50;;;;;;;20.73;14.40;;;7.40;1.00;;;;;;5088713;28;20744;-52
2022/04/21 05:14:17;;;;;;;23.77;13.90;;;7.50;1.00;;;;;;5081567;28;20414;-53
2022/04/21 05:16:43;;;;;;;21.90;14.60;;;7.60;1.00;;;;;;5084847;28;20883;-52
2022/04/21 05:19:14;;;;;;;21.83;14.00;;;7.90;1.00;;;;;;5081770;28;20410;-52
2022/04/21 05:21:41;;;;;;;20.23;14.00;;;8.20;99.90;;;;;;5087860;28;20520;-53
2022/04/21 05:24:08;;;;;;;24.65;15.07;;;8.30;99.90;;;;;;5088751;28;20384;-52
2022/04/21 05:26:35;;;;;;;21.40;13.73;;;8.50;99.90;;;;;;5080145;28;20382;-52
2022/04/21 05:30:55;;;;;;;20.60;14.20;;;8.90;99.90;;;;;;5081769;28;20902;-53
2022/04/21 05:31:58;;;;;;;18.92;13.35;;;9.40;99.90;;;;;;5087347;28;20511;-53
2022/04/21 05:34:24;;;;;;;20.97;13.10;;;10.40;99.90;;;;;;5092958;28;20462;-53
2022/04/21 05:36:50;;;;;;;19.63;13.50;;;11.50;99.90;;;;;;5088848;28;20390;-53
2022/04/21 05:39:17;;;;;;;18.75;12.52;;;12.20;99.90;;;;;;5090313;28;20902;-53
2022/04/21 05:41:44;;;;;;;18.42;12.98;;;12.70;99.90;;;;;;5075571;28;20423;-53
2022/04/21 05:44:11;;;;;;;20.33;13.38;;;13.40;99.90;;;;;;5081527;28;20545;-53
2022/04/21 05:46:36;;;;;;;19.33;13.23;;;13.90;98.70;;;;;;5091347;28;20432;-53
2022/04/21 05:49:03;;;;;;;17.07;12.37;;;14.50;97.50;;;;;;5090783;28;20894;-53
2022/04/21 05:51:29;;;;;;;17.05;13.88;;;15.30;93.50;;;;;;5093006;28;20832;-54
2022/04/21 05:53:58;;;;;;;18.08;13.13;;;15.80;91.20;;;;;;5092644;28;20555;-54
2022/04/21 05:56:25;;;;;;;17.45;13.63;;;16.40;90.40;;;;;;5092949;28;20393;-54
2022/04/21 05:58:51;;;;;;;18.40;14.02;;;17.10;85.90;;;;;;5089461;28;20416;-54
2022/04/21 06:01:17;;;;;;;17.08;14.05;;;17.80;99.90;;;;;;5092868;28;20388;-54
2022/04/21 06:03:43;;;;;;;17.70;13.87;;;18.30;99.90;;;;;;5090227;28;20394;-54
2022/04/21 06:06:09;;;;;;;19.42;14.05;;;17.30;99.90;;;;;;5084049;28;20397;-52
2022/04/21 06:08:36;;;;;;;18.58;14.18;;;17.60;99.90;;;;;;5089311;28;20914;-51
2022/04/21 06:11:02;;;;;;;17.13;14.43;;;18.50;99.90;;;;;;5085566;28;20396;-51
2022/04/21 06:13:29;;;;;;;20.13;15.02;;;18.30;99.90;;;;;;5072894;28;20392;-52
2022/04/21 06:15:56;;;;;;;19.17;14.52;;;18.50;99.90;;;;;;5092149;28;20425;-51
2022/04/21 06:18:23;;;;;;;18.13;15.15;;;18.80;99.90;;;;;;5092940;28;20463;-53
2022/04/21 06:20:53;;;;;;;18.67;15.10;;;18.80;99.90;;;;;;5092034;28;20851;-54
2022/04/21 06:23:19;;;;;;;16.55;14.70;;;19.30;99.90;;;;;;5092934;28;20386;-54
2022/04/21 06:25:45;;;;;;;18.17;15.90;;;18.80;99.90;;;;;;5089277;28;20401;-54
2022/04/21 06:28:12;;;;;;;18.20;15.77;;;18.80;99.90;;;;;;5087081;28;20396;-54
2022/04/21 06:30:38;;;;;;;17.83;15.60;;;19.00;99.90;;;;;;5092387;28;20839;-54
2022/04/21 06:33:05;;;;;;;18.58;14.90;;;19.40;99.90;;;;;;5090778;28;20401;-54
2022/04/21 06:35:31;;;;;;;19.88;15.80;;;19.10;99.90;;;;;;5092176;28;20491;-54
2022/04/21 06:37:57;;;;;;;17.25;14.68;;;19.40;99.90;;;;;;5089923;28;20483;-54
2022/04/21 06:40:23;;;;;;;17.00;15.20;;;19.60;99.90;;;;;;5092113;28;20781;-54
2022/04/21 06:42:50;;;;;;;18.15;14.77;;;19.70;99.90;;;;;;5085357;28;20431;-54
2022/04/21 06:48:04;;;;;;;17.95;15.60;;;19.60;99.90;;;;;;5086723;28;20369;-55
2022/04/21 06:50:35;;;;;;;17.55;15.30;;;19.80;99.90;;;;;;5091920;28;20390;-55
2022/04/21 06:53:02;;;;;;;18.00;14.90;;;19.80;99.90;;;;;;5091342;28;20405;-54
2022/04/21 06:55:28;;;;;;;17.63;13.57;;;19.80;99.90;;;;;;5073634;28;20733;-54
2022/04/21 06:57:53;;;;;;;18.27;13.98;;;19.60;99.90;;;;;;5086767;28;20879;-54
2022/04/21 07:00:19;;;;;;;17.97;13.60;;;19.70;99.90;;;;;;5091544;28;20458;-55
2022/04/21 07:02:45;;;;;;;16.17;13.05;;;20.70;99.90;;;;;;5092401;28;20711;-54
2022/04/21 07:05:13;;;;;;;17.27;13.30;;;21.20;99.90;;;;;;5091203;28;20457;-54
2022/04/21 07:07:40;;;;;;;17.90;13.40;;;20.90;99.90;;;;;;5091602;28;20414;-55
2022/04/21 07:10:07;;;;;;;23.50;15.13;;;21.40;99.90;;;;;;5072458;28;20417;-59
2022/04/21 07:12:33;;;;;;;18.77;13.25;;;22.50;99.90;;;;;;5089443;28;20398;-55
2022/04/21 07:15:00;;;;;;;17.50;14.63;;;22.30;99.90;;;;;;5090753;28;20455;-55
2022/04/21 07:17:26;;;;;;;17.05;13.40;;;22.40;99.90;;;;;;5090253;28;20385;-55
2022/04/21 07:19:52;;;;;;;19.38;14.27;;;22.80;99.90;;;;;;5089730;28;20402;-55
2022/04/21 07:22:24;;;;;;;21.60;14.50;;;23.30;99.90;;;;;;5089585;28;20406;-55
2022/04/21 07:24:51;;;;;;;17.27;14.33;;;23.40;99.90;;;;;;5070677;28;20492;-55
2022/04/21 07:27:17;;;;;;;17.88;13.98;;;23.10;99.90;;;;;;5085700;28;20393;-55
2022/04/21 07:29:42;;;;;;;16.63;13.20;;;22.80;99.90;;;;;;5084748;28;20731;-55
2022/04/21 07:32:09;;;;;;;16.33;13.10;;;22.40;99.90;;;;;;5088661;28;20475;-55
2022/04/21 07:34:35;;;;;;;17.77;13.50;;;22.40;99.90;;;;;;5091144;28;20398;-55
2022/04/21 07:37:00;;;;;;;16.90;13.95;;;22.70;99.90;;;;;;5089610;28;20389;-55
2022/04/21 07:39:26;;;;;;;17.65;14.05;;;23.20;99.90;;;;;;5090884;28;20374;-55
2022/04/21 07:41:52;;;;;;;18.15;12.95;;;23.30;99.90;;;;;;5090321;28;20409;-55
2022/04/21 07:44:18;;;;;;;20.03;16.90;;;23.40;99.90;;;;;;5090271;28;20382;-55
2022/04/21 07:46:43;;;;;;;19.27;17.00;;;23.40;99.90;;;;;;5090267;28;20708;-55
2022/04/21 07:53:13;;;;;;;17.08;15.23;;;24.20;99.90;;;;;;5089885;28;20719;-53
2022/04/21 07:54:43;;;;;;;18.00;15.77;;;24.00;99.90;;;;;;5086093;28;20417;-52
2022/04/21 07:57:09;;;;;;;16.92;13.05;;;24.10;99.90;;;;;;5089379;28;20396;-53
2022/04/21 07:59:35;;;;;;;17.35;13.23;;;24.20;99.90;;;;;;5088713;28;20382;-52
2022/04/21 08:02:01;;;;;;;17.92;12.80;;;24.50;99.90;;;;;;5089380;28;20794;-53
2022/04/21 08:04:27;;;;;;;17.58;15.38;;;24.60;99.90;;;;;;5090370;28;20422;-53
2022/04/21 08:06:54;;;;;;;16.10;13.05;;;24.90;1.00;;;;;;5089475;28;20425;-53
2022/04/21 08:09:20;;;;;;;15.48;12.93;;;24.50;1.00;;;;;;5090720;28;20394;-53
2022/04/21 08:11:46;;;;;;;18.33;13.00;;;24.50;1.00;;;;;;5090198;28;20473;-53
2022/04/21 08:14:16;;;;;;;18.42;15.18;;;24.10;1.00;;;;;;5089440;28;20455;-53
2022/04/21 08:16:43;;;;;;;17.73;13.50;;;24.00;1.00;;;;;;5090292;28;20770;-53
2022/04/21 08:19:12;;;;;;;20.57;14.27;;;24.20;1.00;;;;;;5071355;28;20469;-53
2022/04/21 08:21:38;;;;;;;17.20;13.05;;;25.00;1.00;;;;;;5090170;28;20889;-55
2022/04/21 08:32:33;;;;;;;17.73;15.82;;;24.40;1.00;;;;;;5089798;28;20373;-55
2022/04/21 08:35:03;;;;;;;18.40;16.50;;;24.10;1.00;;;;;;5089279;28;20414;-55
2022/04/21 08:37:35;;;;;;;18.02;15.52;;;23.80;1.00;;;;;;5075411;28;20426;-53
2022/04/21 08:40:01;;;;;;;17.27;15.45;;;24.10;1.00;;;;;;5098892;28;20528;-52
2022/04/21 08:42:30;;;;;;;16.45;13.40;;;24.00;1.00;;;;;;5094150;28;20408;-55
2022/04/21 08:44:58;;;;;;;16.58;13.48;;;24.20;1.00;;;;;;5086141;28;20378;-55
2022/04/21 08:47:29;;;;;;;15.13;13.52;;;24.60;1.00;;;;;;5094496;28;20636;-55
2022/04/21 08:50:05;;;;;;;15.83;12.40;;;25.30;1.00;;;;;;5069694;28;20394;-55
2022/04/21 08:52:32;;;;;;;15.10;13.48;;;25.60;1.00;;;;;;5087844;28;20406;-55
2022/04/21 08:54:58;;;;;;;16.45;13.63;;;24.50;1.00;;;;;;5091165;28;20507;-55
2022/04/21 08:57:24;;;;;;;16.58;10.85;;;24.60;1.00;;;;;;5086688;28;20446;-55
2022/04/21 08:59:49;;;;;;;16.47;14.30;;;24.80;1.00;;;;;;5089361;28;20393;-55
2022/04/21 09:02:15;;;;;;;15.43;13.80;;;24.30;1.00;;;;;;5088209;28;20873;-55
2022/04/21 09:04:44;;;;;;;15.43;13.57;;;23.70;1.00;;;;;;5087955;28;20399;-55
2022/04/21 09:07:15;;;;;;;12.77;10.45;;;24.50;1.00;;;;;;5088806;28;20382;-55
2022/04/21 09:10:11;;;;;;;16.92;10.23;;;25.60;1.00;;;;;;5074306;28;20380;-55
2022/04/21 09:12:43;;;;;;;14.70;10.87;;;26.40;1.00;;;;;;5078306;28;20905;-55
2022/04/21 09:15:12;;;;;;;13.80;10.50;;;26.00;1.00;;;;;;5069415;28;20411;-55
2022/04/21 09:17:51;;;;;;;14.57;9.60;;;25.80;1.00;;;;;;5069494;28;20392;-55
2022/04/21 09:20:19;;;;;;;14.45;12.32;;;25.90;1.00;;;;;;5073595;28;20402;-55
2022/04/21 09:22:53;;;;;;;14.20;11.10;;;26.90;1.00;;;;;;5089588;28;20438;-55
2022/04/21 09:25:27;;;;;;;14.40;10.50;;;26.20;99.90;;;;;;5083373;28;20388;-56
2022/04/21 09:27:56;;;;;;;15.57;11.48;;;26.10;99.90;;;;;;5082092;28;20398;-56
2022/04/21 09:30:22;;;;;;;12.90;10.13;;;26.70;99.90;;;;;;5090024;28;20422;-55
2022/04/21 09:32:54;;;;;;;14.18;10.48;;;;;;;;;;5065977;28;20442;-56
2022/04/21 09:35:22;;;;;;;12.05;9.27;;;27.50;99.90;;;;;;5079262;28;20399;-57
2022/04/21 09:37:53;;;;;;;14.13;10.40;;;27.80;99.90;;;;;;5088546;28;20398;-57
2022/04/21 09:40:20;;;;;;;15.70;10.27;;;27.60;99.90;;;;;;5089035;28;20374;-56
2022/04/21 09:43:26;;;;;;;12.15;9.65;;;27.30;99.90;;;;;;5089453;28;20386;-56
2022/04/21 09:46:10;;;;;;;14.30;10.38;;;27.80;99.90;;;;;;5068472;28;20397;-56
2022/04/21 09:48:36;;;;;;;12.60;9.70;;;26.40;99.90;;;;;;5088061;28;20457;-53
2022/04/21 09:51:22;;;;;;;13.73;10.60;;;24.70;99.90;;;;;;5069843;28;20410;-54
2022/04/21 09:53:58;;;;;;;12.40;10.75;;;24.60;99.90;;;;;;5085990;28;20377;-54
2022/04/21 09:56:33;;;;;;;14.73;10.10;;;24.90;99.90;;;;;;5088963;28;20458;-54
2022/04/21 09:59:04;;;;;;;13.98;10.48;;;25.90;99.90;;;;;;5088613;28;20379;-55
2022/04/21 10:01:33;;;;;;;12.85;10.30;;;25.80;99.90;;;;;;5083528;28;20430;-55
2022/04/21 10:04:01;;;;;;;11.68;9.55;;;26.80;99.90;;;;;;5086206;28;20413;-55
2022/04/21 10:06:27;;;;;;;12.23;9.65;;;26.00;99.90;;;;;;5078752;28;20390;-55
2022/04/21 10:08:53;;;;;;;15.32;10.55;;;25.20;99.90;;;;;;5088525;28;20893;-56
2022/04/21 10:11:27;;;;;;;12.95;11.05;;;23.90;99.90;;;;;;5087779;28;20394;-55
2022/04/21 10:13:56;;;;;;;14.15;9.70;;;21.90;99.90;;;;;;5094816;28;20401;-55
2022/04/21 10:16:24;;;;;;;12.90;9.60;;;21.20;99.90;;;;;;5096203;28;20441;-53
2022/04/21 10:18:53;;;;;;;12.88;10.20;;;20.20;99.90;;;;;;5096947;28;20472;-55
2022/04/21 10:21:36;;;;;;;12.50;10.25;;;20.60;99.90;;;;;;5094456;28;20410;-55
2022/04/21 10:24:04;;;;;;;12.68;10.50;;;21.10;99.90;;;;;;5097102;28;20434;-56
2022/04/21 10:26:43;;;;;;;12.10;10.20;;;21.00;99.90;;;;;;5093965;28;20382;-56
2022/04/21 10:29:12;;;;;;;16.17;14.57;;;22.10;99.90;;;;;;5096973;28;20713;-55
2022/04/21 10:31:57;;;;;;;11.27;9.20;;;22.60;99.90;;;;;;5085979;28;20384;-55
2022/04/21 10:34:45;;;;;;;11.88;8.95;;;23.60;99.90;;;;;;5090245;28;20468;-56
2022/04/21 10:37:20;;;;;;;11.37;8.47;;;23.10;99.90;;;;;;5088861;28;20494;-56
2022/04/21 10:40:05;;;;;;;10.30;7.82;;;22.30;99.90;;;;;;5092506;28;20442;-55
2022/04/21 10:42:58;;;;;;;9.93;6.43;;;22.20;99.90;;;;;;5074880;28;20409;-56
2022/04/21 10:45:28;;;;;;;10.20;6.40;;;21.60;99.90;;;;;;5093162;28;20374;-56
2022/04/21 10:48:08;;;;;;;10.77;6.83;;;21.90;99.90;;;;;;5086711;28;20397;-56
2022/04/21 10:50:39;;;;;;;9.82;6.30;;;21.40;99.90;;;;;;5092858;28;20421;-55
2022/04/21 10:58:36;;;;;;;8.40;4.87;;;21.30;99.90;;;;;;5092586;28;20895;-54
2022/04/21 11:01:17;;;;;;;8.00;4.60;;;19.70;99.90;;;;;;5074211;28;20478;-53
2022/04/21 11:04:03;;;;;;;8.00;4.20;;;19.40;99.90;;;;;;5074036;28;20782;-53
2022/04/21 11:06:41;;;;;;;8.55;4.50;;;19.10;99.90;;;;;;5078858;28;20453;-53
2022/04/21 11:09:07;;;;;;;7.40;4.13;;;19.30;99.90;;;;;;5091252;28;20381;-53
2022/04/21 11:11:47;;;;;;;7.65;4.05;;;19.60;99.90;;;;;;5091417;28;20458;-53
2022/04/21 11:14:28;;;;;;;7.70;4.05;;;19.80;99.90;;;;;;5090825;28;20436;-53
2022/04/21 11:16:53;;;;;;;10.25;4.05;;;19.70;99.90;;;;;;5095299;28;20417;-53
2022/04/21 11:19:50;;;;;;;9.90;6.40;;;19.90;99.90;;;;;;5088848;28;20928;-53
2022/04/21 11:22:36;;;;;;;8.05;6.57;;;19.90;99.90;;;;;;5084709;28;20458;-53
2022/04/21 11:25:03;;;;;;;8.00;5.60;;;19.50;99.90;;;;;;5088692;28;20397;-53
2022/04/21 11:27:31;;;;;;;8.10;6.00;;;19.60;99.90;;;;;;5092443;28;20465;-53
2022/04/21 11:30:05;;;;;;;8.10;5.93;;;20.30;99.90;;;;;;5090700;28;20373;-55
2022/04/21 11:32:31;;;;;;;8.50;5.70;;;20.40;99.90;;;;;;5091112;28;20377;-53
2022/04/21 11:35:10;;;;;;;9.05;6.32;;;20.20;99.90;;;;;;5089744;28;20401;-53
2022/04/21 11:37:50;;;;;;;8.80;6.40;;;20.20;99.90;;;;;;5072968;28;20394;-53
2022/04/21 11:40:37;;;;;;;8.00;5.80;;;20.50;99.90;;;;;;5090188;28;20382;-55
2022/04/21 11:43:04;;;;;;;7.55;4.90;;;21.00;99.90;;;;;;5089854;28;20378;-55
2022/04/21 11:45:37;;;;;;;8.10;7.20;;;20.70;99.90;;;;;;5071979;28;20398;-53
2022/04/21 11:48:13;;;;;;;8.40;6.05;;;20.30;99.90;;;;;;5076996;28;20380;-53
2022/04/21 11:50:44;;;;;;;7.83;3.53;;;20.10;99.90;;;;;;5081500;28;20382;-53
2022/04/21 11:53:20;;;;;;;7.78;3.17;;;20.10;99.90;;;;;;5097848;28;20749;-54
2022/04/21 11:55:50;;;;;;;6.40;3.10;;;20.30;99.90;;;;;;5082923;28;20874;-54
2022/04/21 11:58:34;;;;;;;7.45;2.90;;;20.40;99.90;;;;;;5086040;28;20403;-54
2022/04/21 12:06:53;;;;;;;7.78;3.40;;;20.40;99.90;;;;;;5086746;28;20440;-54
2022/04/21 12:09:20;;;;;;;7.55;3.47;;;20.40;99.90;;;;;;5085132;28;20962;-54
2022/04/21 12:11:57;;;;;;;8.55;3.80;;;19.60;99.90;;;;;;5078899;28;20886;-54
2022/04/21 12:14:24;;;;;;;9.15;3.85;;;19.70;99.90;;;;;;5083438;28;20443;-53
2022/04/21 12:16:53;;;;;;;7.45;3.38;;;19.70;99.90;;;;;;5089891;28;20389;-54
2022/04/21 12:19:41;;;;;;;6.95;3.30;;;19.80;99.90;;;;;;5089435;28;20384;-53
2022/04/21 12:22:20;;;;;;;7.00;3.88;;;19.80;99.90;;;;;;5075748;28;20421;-54
2022/04/21 12:24:48;;;;;;;8.95;3.90;;;19.50;99.90;;;;;;5058736;28;20958;-54
2022/04/21 12:27:17;;;;;;;7.68;3.80;;;19.30;99.90;;;;;;5065114;28;20465;-54
2022/04/21 12:30:00;;;;;;;9.48;3.95;;;18.90;99.90;;;;;;5072701;28;20404;-54
2022/04/21 12:32:29;;;;;;;9.20;3.20;;;18.90;99.90;;;;;;5052318;28;20457;-54
2022/04/21 12:34:58;;;;;;;7.13;3.10;;;18.90;99.90;;;;;;5072035;28;20407;-55
2022/04/21 12:37:31;;;;;;;7.15;3.22;;;18.90;99.90;;;;;;5070093;28;20404;-54
2022/04/21 12:40:00;;;;;;;6.87;2.70;;;19.30;99.90;;;;;;5071211;28;20418;-54
2022/04/21 12:42:31;;;;;;;7.20;3.03;;;19.10;99.90;;;;;;5065439;28;20378;-53
2022/04/21 12:44:58;;;;;;;7.00;2.80;;;19.20;99.90;;;;;;5070317;28;20487;-56
2022/04/21 12:47:24;;;;;;;8.80;2.40;;;19.70;99.90;;;;;;5058612;28;20438;-54
2022/04/21 12:50:10;;;;;;;6.35;2.30;;;20.10;99.90;;;;;;5071222;28;20384;-55
2022/04/21 12:52:49;;;;;;;6.20;2.70;;;20.40;99.90;;;;;;5067769;28;20446;-55
2022/04/21 12:55:22;;;;;;;6.55;2.80;;;20.70;99.90;;;;;;5073301;28;20521;-54
2022/04/21 12:58:09;;;;;;;8.20;3.70;;;20.60;99.90;;;;;;5073864;28;20463;-54
2022/04/21 13:00:41;;;;;;;8.07;3.70;;;20.00;99.90;;;;;;5067891;28;20537;-54
2022/04/21 13:03:10;;;;;;;8.93;3.40;;;19.60;99.90;;;;;;5062389;28;20378;-54
2022/04/21 13:05:55;;;;;;;7.38;3.10;;;19.20;99.90;;;;;;5061660;28;20381;-54
2022/04/21 13:08:26;;;;;;;6.50;3.20;;;19.60;99.90;;;;;;5071559;28;20421;-53
2022/04/21 13:10:53;;;;;;;7.28;3.40;;;20.10;99.90;;;;;;5059623;28;20902;-53
2022/04/21 13:13:19;;;;;;;7.65;3.80;;;20.40;99.90;;;;;;5062533;28;20680;-53
2022/04/21 13:15:46;;;;;;;8.10;3.60;;;20.70;99.90;;;;;;5063558;28;20914;-53
2022/04/21 13:18:12;;;;;;;7.65;3.60;;;20.80;99.90;;;;;;5063199;28;20384;-53
2022/04/21 13:23:24;;;;;;;8.40;3.95;;;20.30;99.90;;;;;;5065163;28;20418;-53
2022/04/21 13:25:50;;;;;;;6.70;3.60;;;20.50;99.90;;;;;;5064040;28;20385;-53
2022/04/21 13:28:15;;;;;;;9.20;4.33;;;20.50;99.90;;;;;;5063259;28;20482;-53
2022/04/21 13:30:41;;;;;;;7.97;4.20;;;21.00;99.90;;;;;;5053336;28;20377;-53
2022/04/21 13:33:22;;;;;;;8.02;4.00;;;21.00;99.90;;;;;;5041636;28;20400;-53
2022/04/21 13:35:51;;;;;;;7.40;3.72;;;21.10;99.90;;;;;;5061423;28;20415;-53
2022/04/21 13:38:17;;;;;;;7.70;3.80;;;21.10;99.90;;;;;;5063899;28;20389;-53
2022/04/21 13:40:44;;;;;;;7.40;3.92;;;20.90;99.90;;;;;;5056718;28;20917;-54